Time;durP1;ratioP1;P1;durP2;ratioP2;P2;SDS_P1;SDS_P2;PMS_P1;PMS_P2;Temp;Humidity;BMP_temperature;BMP_pressure;BME280_temperature;BME280_humidity;BME280_pressure;Samples;Min_cycle;Max_cycle;Signal;HPM_P1;HPM_P2
2022/12/28 00:02:04;;;;;;;14.13;1.98;;;;;;;9.44;54.22;102547.31;5049303;28;20072;-80
2022/12/28 00:04:29;;;;;;;1.75;0.98;;;;;;;9.40;53.44;102565.44;5049307;28;20025;-80
2022/12/28 00:06:55;;;;;;;3.47;1.50;;;;;;;9.36;53.26;102551.72;5049124;28;20112;-80
2022/12/28 00:09:20;;;;;;;8.65;1.63;;;;;;;9.29;53.36;102550.09;5049019;28;20423;-79
2022/12/28 00:11:46;;;;;;;6.18;1.70;;;;;;;9.31;53.12;102571.56;5050639;28;21020;-79
2022/12/28 00:14:11;;;;;;;8.25;2.63;;;;;;;9.26;52.35;102562.19;5049349;28;20111;-79
2022/12/28 00:16:38;;;;;;;3.20;1.45;;;;;;;9.16;52.37;102553.69;5049311;28;20036;-79
2022/12/28 00:19:05;;;;;;;10.77;2.38;;;;;;;9.19;52.12;102570.00;5015956;28;20106;-78
2022/12/28 00:21:31;;;;;;;6.80;1.52;;;;;;;9.09;51.87;102560.66;5032674;28;20505;-79
2022/12/28 00:23:57;;;;;;;6.57;2.30;;;;;;;9.13;52.17;102579.53;5048966;28;20060;-79
2022/12/28 00:26:25;;;;;;;8.35;2.90;;;;;;;9.12;52.51;102577.84;5015917;28;20067;-79
2022/12/28 00:28:50;;;;;;;4.18;1.08;;;;;;;9.01;52.55;102566.78;5049501;28;20033;-79
2022/12/28 00:31:16;;;;;;;3.75;1.90;;;;;;;9.05;52.86;102571.06;5015993;28;20083;-79
2022/12/28 00:33:41;;;;;;;6.30;2.17;;;;;;;8.98;52.91;102566.81;5032259;28;20028;-78
2022/12/28 00:36:08;;;;;;;3.15;1.25;;;;;;;9.00;52.69;102578.84;5016015;28;20098;-79
2022/12/28 00:38:34;;;;;;;3.90;1.88;;;;;;;8.99;52.79;102584.03;5048962;28;20057;-79
2022/12/28 00:40:59;;;;;;;6.47;2.25;;;;;;;8.83;53.48;102563.53;5032439;28;20455;-79
2022/12/28 00:43:25;;;;;;;2.08;1.38;;;;;;;9.02;53.73;102589.13;5049009;28;20402;-79
2022/12/28 00:45:51;;;;;;;0.98;0.95;;;;;;;8.88;53.84;102573.81;5050576;28;20025;-79
2022/12/28 00:48:16;;;;;;;3.83;1.83;;;;;;;8.83;54.03;102563.53;5052834;28;20036;-79
2022/12/28 00:50:42;;;;;;;1.20;0.93;;;;;;;8.83;53.37;102580.75;5036048;28;20029;-79
2022/12/28 00:53:07;;;;;;;9.85;1.33;;;;;;;8.78;53.53;102579.94;5052432;28;20532;-80
2022/12/28 00:55:33;;;;;;;4.18;1.58;;;;;;;8.67;53.55;102572.31;5035762;28;20463;-79
2022/12/28 00:57:59;;;;;;;3.90;1.63;;;;;;;8.70;53.40;102585.19;5052278;28;20036;-79
2022/12/28 01:00:25;;;;;;;2.17;1.02;;;;;;;8.68;53.54;102578.34;5035978;28;20056;-79
2022/12/28 01:02:51;;;;;;;0.95;0.77;;;;;;;8.39;53.33;102545.06;5052574;28;20525;-80
2022/12/28 01:05:16;;;;;;;3.90;2.72;;;;;;;8.53;53.71;102563.84;5052039;28;20483;-79
2022/12/28 01:07:42;;;;;;;2.63;1.52;;;;;;;8.58;53.91;102572.41;5053313;28;20025;-79
2022/12/28 01:10:08;;;;;;;2.60;1.15;;;;;;;8.58;54.37;102575.84;5035736;28;20036;-79
2022/12/28 01:12:33;;;;;;;2.17;1.42;;;;;;;8.52;53.87;102568.16;5052448;28;20051;-79
2022/12/28 01:14:58;;;;;;;2.33;1.25;;;;;;;8.44;54.33;102563.94;5019229;28;20037;-79
2022/12/28 01:17:24;;;;;;;3.33;1.23;;;;;;;8.43;53.97;102564.78;5035608;28;20029;-79
2022/12/28 01:19:49;;;;;;;2.25;1.75;;;;;;;8.48;53.84;102568.22;5052018;28;20098;-80
2022/12/28 01:22:15;;;;;;;1.85;1.45;;;;;;;8.49;53.78;102569.91;5051789;28;20052;-79
2022/12/28 01:24:40;;;;;;;1.58;1.27;;;;;;;8.42;53.81;102568.25;5035378;28;20028;-79
2022/12/28 01:27:06;;;;;;;5.28;1.80;;;;;;;8.46;53.64;102575.97;5052091;28;20478;-79
2022/12/28 01:29:31;;;;;;;3.58;1.30;;;;;;;8.45;53.56;102574.22;5051732;28;20025;-80
2022/12/28 01:31:57;;;;;;;2.05;1.35;;;;;;;8.28;54.55;102552.88;5018811;28;20037;-79
2022/12/28 01:34:22;;;;;;;2.22;1.40;;;;;;;8.29;54.11;102539.97;5035202;28;20025;-80
2022/12/28 01:36:48;;;;;;;4.53;1.75;;;;;;;8.42;54.28;102568.25;5035056;28;20487;-78
2022/12/28 01:39:13;;;;;;;9.00;2.38;;;;;;;8.36;54.43;102566.59;5035190;28;20055;-80
2022/12/28 01:41:39;;;;;;;9.73;4.45;;;;;;;8.27;54.55;102559.75;5018660;28;20032;-79
2022/12/28 01:44:05;;;;;;;2.35;1.35;;;;;;;8.26;54.73;102576.09;5051620;28;20029;-79
2022/12/28 01:46:37;;;;;;;4.07;2.22;;;;;;;8.20;55.12;102570.13;5052522;28;20036;-79
2022/12/28 01:49:36;;;;;;;2.15;1.83;;;;;;;8.22;55.63;102578.69;5018680;28;20479;-80
2022/12/28 01:52:03;;;;;;;4.82;1.55;;;;;;;8.08;55.78;102550.47;5034890;28;20132;-79
2022/12/28 01:54:30;;;;;;;2.53;1.55;;;;;;;8.08;55.88;102565.94;5051854;28;20110;-79
2022/12/28 01:56:55;;;;;;;3.00;1.50;;;;;;;8.22;55.68;102576.97;5050389;28;20036;-79
2022/12/28 01:59:21;;;;;;;3.40;1.30;;;;;;;8.18;55.63;102572.72;5034792;28;20040;-79
2022/12/28 02:01:47;;;;;;;1.80;1.23;;;;;;;8.05;56.36;102560.78;5051547;28;20025;-79
2022/12/28 02:04:12;;;;;;;10.88;2.35;;;;;;;8.17;56.03;102571.00;5051732;28;20037;-79
2022/12/28 02:06:38;;;;;;;4.68;2.35;;;;;;;8.08;56.59;102565.94;5050724;28;20467;-79
2022/12/28 02:09:09;;;;;;;1.80;1.20;;;;;;;7.71;57.12;102530.09;5051330;28;20518;-80
2022/12/28 02:11:35;;;;;;;5.07;1.70;;;;;;;7.89;57.57;102572.94;5034594;28;20103;-79
2022/12/28 02:14:00;;;;;;;1.83;0.82;;;;;;;7.97;57.45;102583.19;5050936;28;20029;-79
2022/12/28 02:16:26;;;;;;;3.42;1.67;;;;;;;7.90;57.27;102555.75;5051114;28;20025;-79
2022/12/28 02:18:52;;;;;;;1.67;1.00;;;;;;;7.95;56.90;102574.59;5050718;28;20048;-79
2022/12/28 02:21:38;;;;;;;1.75;1.17;;;;;;;7.75;56.77;102544.66;5034182;28;20020;-79
2022/12/28 02:24:13;;;;;;;2.70;1.42;;;;;;;7.90;56.77;102571.22;5052221;28;20483;-78
2022/12/28 02:27:01;;;;;;;2.67;1.85;;;;;;;7.91;57.05;102573.78;5052098;28;20021;-80
2022/12/28 02:29:52;;;;;;;1.48;1.30;;;;;;;7.70;56.85;102533.56;5050898;28;20025;-79
2022/12/28 02:32:26;;;;;;;2.55;1.27;;;;;;;7.86;56.89;102561.78;5036670;28;20033;-79
2022/12/28 02:35:14;;;;;;;6.25;1.38;;;;;;;7.84;56.76;102550.63;5051687;28;20044;-79
2022/12/28 02:37:55;;;;;;;2.05;1.40;;;;;;;7.91;56.77;102547.16;5030013;28;20041;-80
2022/12/28 02:40:30;;;;;;;3.28;1.75;;;;;;;7.85;56.76;102536.88;5050923;28;20522;-79
2022/12/28 02:42:56;;;;;;;5.80;1.85;;;;;;;7.88;56.27;102526.56;5017749;28;20033;-79
2022/12/28 02:51:19;;;;;;;2.80;1.90;;;;;;;7.72;56.65;102510.34;5050467;28;20044;-78
2022/12/28 02:54:08;;;;;;;2.55;0.90;;;;;;;7.66;56.52;102515.53;5034540;28;20036;-79
2022/12/28 02:56:45;;;;;;;1.67;0.98;;;;;;;7.70;56.43;102533.56;5050319;28;20551;-79
2022/12/28 02:59:35;;;;;;;5.47;2.22;;;;;;;7.53;56.53;102489.00;5034253;28;20024;-79
2022/12/28 03:02:17;;;;;;;4.07;1.73;;;;;;;7.78;56.12;102533.50;5044594;28;20118;-79
2022/12/28 03:05:07;;;;;;;3.60;1.67;;;;;;;7.79;55.87;102534.38;5049614;28;20112;-80
2022/12/28 03:10:24;;;;;;;3.30;1.83;;;;;;;7.76;56.69;102537.78;5050095;28;20032;-79
2022/12/28 03:12:57;;;;;;;2.55;1.30;;;;;;;7.51;56.60;102520.81;5051554;28;20403;-79
2022/12/28 03:15:43;;;;;;;;;;;;;;;7.57;57.11;102542.22;5050449;28;20028;-79
2022/12/28 03:31:49;;;;;;;2.08;1.42;;;;;;;7.48;57.51;102543.13;5035414;28;20081;-79
2022/12/28 03:34:14;;;;;;;2.83;1.80;;;;;;;7.52;58.01;102554.25;5032886;28;20037;-79
2022/12/28 03:36:43;;;;;;;4.15;1.98;;;;;;;7.42;58.46;102553.47;5049759;28;20033;-79
2022/12/28 03:39:30;;;;;;;4.65;2.40;;;;;;;7.41;59.26;102553.47;5050551;28;20021;-80
2022/12/28 03:44:54;;;;;;;5.38;3.30;;;;;;;7.27;58.81;102550.09;5035996;28;20118;-79
2022/12/28 03:47:19;;;;;;;4.38;2.75;;;;;;;7.34;58.12;102559.50;5049493;28;20091;-79
2022/12/28 03:49:45;;;;;;;3.25;2.13;;;;;;;7.29;58.02;102551.81;5049833;28;20036;-80
2022/12/28 03:52:10;;;;;;;3.17;2.38;;;;;;;7.31;57.80;102551.81;5032924;28;20033;-79
2022/12/28 03:54:36;;;;;;;1.80;1.60;;;;;;;7.33;58.03;102560.38;5049728;28;20032;-80
2022/12/28 03:57:01;;;;;;;3.70;2.40;;;;;;;7.28;58.27;102554.41;5032919;28;20095;-80
2022/12/28 03:59:27;;;;;;;4.15;1.88;;;;;;;7.22;58.85;102554.41;5032831;28;20388;-79
2022/12/28 04:01:52;;;;;;;3.95;2.00;;;;;;;7.15;58.82;102558.72;5032437;28;20502;-78
2022/12/28 04:04:18;;;;;;;3.58;2.72;;;;;;;7.07;58.94;102563.88;5049688;28;20060;-79
2022/12/28 04:06:43;;;;;;;5.97;2.72;;;;;;;7.07;58.71;102563.03;5049182;28;20024;-80
2022/12/28 04:09:09;;;;;;;4.80;2.42;;;;;;;7.11;58.01;102568.19;5032601;28;20113;-80
2022/12/28 04:11:34;;;;;;;3.75;2.10;;;;;;;6.82;57.75;102523.69;5016268;28;20036;-80
2022/12/28 04:14:02;;;;;;;5.55;2.33;;;;;;;6.99;58.08;102547.66;5049299;28;20029;-79
2022/12/28 04:16:27;;;;;;;3.63;2.22;;;;;;;7.02;58.73;102557.91;5032571;28;20032;-79
2022/12/28 04:18:53;;;;;;;10.88;3.15;;;;;;;6.91;59.31;102546.81;5050183;28;20049;-79
2022/12/28 04:21:18;;;;;;;4.28;1.95;;;;;;;6.92;59.32;102566.53;5035661;28;20056;-79
2022/12/28 04:23:44;;;;;;;4.40;1.98;;;;;;;6.73;59.52;102555.44;5036731;28;20025;-79
2022/12/28 04:26:10;;;;;;;4.30;2.45;;;;;;;6.76;58.92;102559.69;5052961;28;20103;-80
2022/12/28 04:28:36;;;;;;;8.18;3.55;;;;;;;6.59;60.04;102563.19;5036663;28;20025;-79
2022/12/28 04:31:02;;;;;;;5.40;2.83;;;;;;;6.63;60.10;102576.03;5019728;28;20029;-79
2022/12/28 04:33:30;;;;;;;4.35;2.10;;;;;;;6.51;60.73;102576.91;5036417;28;20112;-79
2022/12/28 04:36:04;;;;;;;8.80;2.78;;;;;;;6.46;60.97;102578.59;5053092;28;20032;-80
2022/12/28 04:38:29;;;;;;;7.30;2.78;;;;;;;6.33;61.19;102585.47;5036632;28;20025;-80
2022/12/28 04:40:55;;;;;;;5.32;3.60;;;;;;;6.20;62.05;102589.78;5036331;28;20534;-79
2022/12/28 04:43:20;;;;;;;6.72;3.80;;;;;;;6.16;61.94;102590.59;5052616;28;20061;-79
2022/12/28 04:45:55;;;;;;;4.45;2.30;;;;;;;6.10;60.66;102588.06;5035814;28;20033;-79
2022/12/28 04:48:20;;;;;;;6.18;2.97;;;;;;;6.23;60.95;102599.19;5036802;28;20029;-79
2022/12/28 04:50:46;;;;;;;7.97;4.47;;;;;;;6.12;60.70;102578.63;5036113;28;20483;-80
2022/12/28 04:53:11;;;;;;;11.02;4.28;;;;;;;6.25;61.33;102610.31;5052764;28;20064;-79
2022/12/28 04:55:37;;;;;;;5.93;3.75;;;;;;;6.20;61.28;102605.19;5052621;28;20029;-79
2022/12/28 04:58:02;;;;;;;4.22;3.55;;;;;;;6.18;60.95;102612.03;5052692;28;20079;-79
2022/12/28 05:00:28;;;;;;;10.07;4.32;;;;;;;6.14;61.93;102614.59;5053279;28;20454;-79
2022/12/28 05:02:53;;;;;;;9.52;4.50;;;;;;;6.06;62.12;102600.88;5035926;28;20024;-79
2022/12/28 05:05:19;;;;;;;9.80;3.88;;;;;;;6.10;62.18;102621.47;5053417;28;20418;-79
2022/12/28 05:07:44;;;;;;;6.22;3.47;;;;;;;6.04;62.14;102617.16;5019349;28;20087;-79
2022/12/28 05:10:09;;;;;;;5.72;2.88;;;;;;;5.73;62.03;102571.69;5052745;28;20028;-79
2022/12/28 05:12:35;;;;;;;5.65;4.25;;;;;;;5.88;62.96;102615.38;5019289;28;20036;-79
2022/12/28 05:15:00;;;;;;;8.55;4.00;;;;;;;5.82;63.04;102612.81;5052009;28;20482;-78
2022/12/28 05:17:26;;;;;;;5.82;3.53;;;;;;;5.96;63.52;102646.25;5035558;28;20029;-79
2022/12/28 05:19:51;;;;;;;9.73;4.80;;;;;;;5.80;63.82;102632.50;5052038;28;20060;-79
2022/12/28 05:22:17;;;;;;;5.38;3.75;;;;;;;5.90;63.27;102651.31;5035498;28;20520;-79
2022/12/28 05:24:42;;;;;;;10.70;5.82;;;;;;;5.79;63.24;102648.72;5035528;28;20033;-79
2022/12/28 05:27:08;;;;;;;7.28;4.05;;;;;;;5.76;63.27;102651.28;5035777;28;20051;-79
2022/12/28 05:29:33;;;;;;;7.63;3.00;;;;;;;5.73;63.49;102648.72;5051771;28;20029;-79
2022/12/28 05:31:59;;;;;;;7.57;3.75;;;;;;;5.56;64.18;102620.41;5034777;28;20036;-79
2022/12/28 05:34:24;;;;;;;5.95;3.15;;;;;;;5.66;64.16;102641.84;5035379;28;20032;-79
2022/12/28 05:36:50;;;;;;;7.10;3.72;;;;;;;5.69;64.28;102646.97;5051899;28;20037;-79
2022/12/28 05:39:15;;;;;;;8.77;3.85;;;;;;;5.61;64.62;102639.28;5051702;28;20461;-79
2022/12/28 05:41:41;;;;;;;5.50;3.58;;;;;;;5.70;64.60;102644.44;5051606;28;20040;-79
2022/12/28 05:44:06;;;;;;;3.78;3.30;;;;;;;5.70;64.72;102653.84;5034776;28;20094;-79
2022/12/28 05:46:32;;;;;;;4.18;3.15;;;;;;;5.63;65.61;102652.97;5051702;28;20033;-80
2022/12/28 05:48:58;;;;;;;6.55;3.35;;;;;;;5.60;65.63;102654.66;5051686;28;20063;-79
2022/12/28 05:51:25;;;;;;;7.30;3.97;;;;;;;5.42;65.99;102635.78;5051427;28;20052;-79
2022/12/28 05:53:51;;;;;;;4.28;2.40;;;;;;;5.43;66.04;102645.19;5018657;28;20036;-79
2022/12/28 05:56:18;;;;;;;6.80;3.40;;;;;;;5.61;65.23;102658.97;5034845;28;20029;-79
2022/12/28 05:58:45;;;;;;;10.57;4.55;;;;;;;5.50;65.61;102646.06;5051414;28;20490;-80
2022/12/28 06:01:18;;;;;;;5.18;2.88;;;;;;;5.26;65.70;102621.16;5034900;28;20422;-80
2022/12/28 06:03:44;;;;;;;6.65;4.70;;;;;;;5.43;66.18;102655.47;5035041;28;20044;-79
2022/12/28 06:06:10;;;;;;;8.63;5.07;;;;;;;5.44;66.43;102659.75;5051355;28;20041;-79
2022/12/28 06:08:36;;;;;;;6.80;4.15;;;;;;;5.34;66.64;102649.41;5051060;28;20495;-80
2022/12/28 06:11:03;;;;;;;6.80;4.57;;;;;;;5.24;66.78;102640.81;5018214;28;20082;-78
2022/12/28 06:13:29;;;;;;;9.18;3.40;;;;;;;5.27;66.80;102658.78;5034588;28;20055;-79
2022/12/28 06:15:54;;;;;;;13.40;5.68;;;;;;;5.24;66.68;102640.81;5051335;28;20478;-79
2022/12/28 06:18:20;;;;;;;7.55;4.07;;;;;;;5.35;66.19;102652.00;5034384;28;20021;-79
2022/12/28 06:20:45;;;;;;;6.88;3.33;;;;;;;5.38;66.57;102666.53;5050790;28;20530;-79
2022/12/28 06:23:11;;;;;;;14.63;6.38;;;;;;;5.07;67.42;102620.19;5051061;28;20032;-78
2022/12/28 06:25:37;;;;;;;11.23;6.63;;;;;;;5.34;67.53;102665.69;5050898;28;20434;-78
2022/12/28 06:28:02;;;;;;;20.73;8.10;;;;;;;5.42;68.00;102676.00;5050233;28;20048;-79
2022/12/28 06:30:28;;;;;;;19.13;7.03;;;;;;;5.40;68.15;102672.53;5034355;28;20483;-78
2022/12/28 06:32:55;;;;;;;8.23;3.30;;;;;;;4.96;69.01;102610.72;5050742;28;20052;-79
2022/12/28 06:35:21;;;;;;;17.38;5.53;;;;;;;5.27;68.15;102663.06;5050828;28;20033;-79
2022/12/28 06:37:47;;;;;;;7.88;3.42;;;;;;;5.36;68.23;102668.25;5050774;28;20138;-79
2022/12/28 06:40:12;;;;;;;9.20;5.72;;;;;;;5.45;68.06;102674.28;5050293;28;20035;-79
2022/12/28 06:42:38;;;;;;;13.55;7.30;;;;;;;5.40;68.13;102662.25;5033482;28;20029;-79
2022/12/28 06:45:04;;;;;;;21.38;10.30;;;;;;;5.54;68.05;102680.31;5049124;28;20505;-80
2022/12/28 06:47:29;;;;;;;20.73;7.80;;;;;;;5.61;68.29;102671.81;5033157;28;20530;-78
2022/12/28 06:49:55;;;;;;;23.42;12.45;;;;;;;5.54;68.89;102672.63;5066491;28;20025;-79
2022/12/28 06:52:20;;;;;;;19.25;8.40;;;;;;;5.54;69.49;102668.34;5050891;28;20037;-79
2022/12/28 06:54:46;;;;;;;12.90;6.47;;;;;;;5.50;70.07;102656.31;5066904;28;20032;-79
2022/12/28 06:57:11;;;;;;;11.95;6.43;;;;;;;5.52;69.19;102654.66;5067131;28;20040;-79
2022/12/28 06:59:37;;;;;;;19.63;9.23;;;;;;;5.63;68.96;102665.81;5050413;28;20082;-79
2022/12/28 07:02:02;;;;;;;19.73;10.20;;;;;;;5.63;69.31;102654.69;5066960;28;20036;-79
2022/12/28 07:04:28;;;;;;;16.90;10.73;;;;;;;5.73;68.86;102653.88;5067296;28;20094;-79
2022/12/28 07:06:53;;;;;;;20.70;11.38;;;;;;;5.75;69.09;102653.00;5068082;28;20027;-79
2022/12/28 07:09:19;;;;;;;35.10;12.55;;;;;;;5.77;69.37;102653.00;5066955;28;20078;-82
2022/12/28 07:11:45;;;;;;;24.15;10.57;;;;;;;5.77;69.33;102650.44;5066764;28;20039;-78
2022/12/28 07:14:11;;;;;;;24.02;12.15;;;;;;;5.78;69.33;102641.88;5079220;28;20033;-78
2022/12/28 07:16:36;;;;;;;18.73;11.43;;;;;;;6.01;68.80;102671.13;5066227;28;20036;-79
2022/12/28 07:19:02;;;;;;;22.65;12.90;;;;;;;6.04;68.45;102665.97;5036151;28;20048;-78
2022/12/28 07:21:29;;;;;;;20.60;14.10;;;;;;;6.11;68.00;102656.56;5052786;28;20025;-79
2022/12/28 07:23:55;;;;;;;24.75;12.73;;;;;;;6.17;68.06;102668.56;5068944;28;20032;-79
2022/12/28 07:26:22;;;;;;;28.65;13.18;;;;;;;6.17;69.20;102655.72;5045712;28;21149;-79
2022/12/28 07:28:49;;;;;;;24.17;15.05;;;;;;;6.02;68.57;102620.59;5065108;28;20112;-79
2022/12/28 07:31:16;;;;;;;34.10;13.02;;;;;;;6.39;68.14;102670.34;5048929;28;20413;-80
2022/12/28 07:33:42;;;;;;;14.52;7.03;;;;;;;6.36;67.79;102670.31;5049913;28;20032;-79
2022/12/28 07:36:10;;;;;;;10.48;4.82;;;;;;;6.25;67.57;102648.88;5046047;28;20031;-79
2022/12/28 07:38:35;;;;;;;9.10;6.28;;;;;;;6.41;67.39;102660.03;5048421;28;20035;-79
2022/12/28 07:41:08;;;;;;;7.88;3.92;;;;;;;6.42;67.07;102649.75;5047243;28;20037;-81
2022/12/28 07:43:34;;;;;;;9.10;5.82;;;;;;;6.58;66.52;102682.31;5050934;28;20024;-81
2022/12/28 07:46:04;;;;;;;9.38;4.53;;;;;;;6.63;65.44;102679.75;5063235;28;20539;-79
2022/12/28 07:48:30;;;;;;;11.05;6.60;;;;;;;6.76;64.98;102681.47;5047034;28;20037;-80
2022/12/28 07:50:56;;;;;;;11.32;4.47;;;;;;;6.71;63.97;102664.34;5066527;28;20411;-79
2022/12/28 07:53:21;;;;;;;13.88;6.22;;;;;;;6.94;63.62;102683.16;5067226;28;20043;-79
2022/12/28 07:55:55;;;;;;;10.15;5.35;;;;;;;6.97;62.82;102672.88;5065277;28;20108;-79
2022/12/28 07:58:20;;;;;;;12.73;6.43;;;;;;;7.10;62.37;102679.72;5049302;28;20040;-79
2022/12/28 08:00:46;;;;;;;13.07;7.22;;;;;;;7.25;60.98;102677.97;5032612;28;20035;-78
2022/12/28 08:03:11;;;;;;;22.02;10.18;;;;;;;7.15;59.41;102656.53;5066378;28;20029;-79
2022/12/28 08:05:37;;;;;;;20.85;10.25;;;;;;;7.23;59.60;102669.41;5063899;28;20028;-79
2022/12/28 08:08:02;;;;;;;17.50;8.98;;;;;;;6.89;59.13;102612.88;5053977;28;20105;-79
2022/12/28 08:10:28;;;;;;;15.82;8.55;;;;;;;7.27;58.55;102678.81;5068915;28;20044;-79
2022/12/28 08:12:53;;;;;;;12.55;7.00;;;;;;;7.34;58.63;102678.81;5068794;28;20470;-79
2022/12/28 08:15:19;;;;;;;17.02;5.57;;;;;;;7.33;58.20;102679.66;5068850;28;20025;-79
2022/12/28 08:17:44;;;;;;;12.70;5.80;;;;;;;7.40;56.78;102678.78;5052412;28;20051;-79
2022/12/28 08:20:10;;;;;;;11.55;5.40;;;;;;;7.31;56.56;102655.66;5069075;28;20057;-79
2022/12/28 08:22:35;;;;;;;11.68;6.78;;;;;;;7.53;56.51;102663.28;5068683;28;20048;-79
2022/12/28 08:25:01;;;;;;;12.30;5.95;;;;;;;7.32;54.92;102626.47;5069352;28;20410;-79
2022/12/28 08:27:26;;;;;;;11.05;4.78;;;;;;;7.68;53.96;102674.41;5068782;28;20024;-79
2022/12/28 08:29:52;;;;;;;13.68;6.38;;;;;;;7.74;53.53;102653.75;5035818;28;20033;-79
2022/12/28 08:32:17;;;;;;;13.63;7.25;;;;;;;7.97;53.50;102676.00;5035728;28;20032;-78
2022/12/28 08:34:43;;;;;;;19.40;10.15;;;;;;;8.12;53.54;102683.63;5069044;28;20478;-79
2022/12/28 08:37:09;;;;;;;13.18;6.90;;;;;;;8.21;53.01;102675.81;5070224;28;20025;-79
2022/12/28 08:39:34;;;;;;;21.42;9.68;;;;;;;8.31;52.68;102682.63;5068987;28;20024;-79
2022/12/28 08:42:00;;;;;;;13.80;6.55;;;;;;;8.25;51.78;102662.03;5069871;28;20402;-79
2022/12/28 08:44:25;;;;;;;16.17;6.95;;;;;;;8.37;51.07;102671.47;5070100;28;20036;-79
2022/12/28 08:46:53;;;;;;;13.48;5.65;;;;;;;8.44;49.91;102677.41;5051948;28;20099;-80
2022/12/28 08:49:18;;;;;;;14.10;5.13;;;;;;;8.48;48.71;102679.13;5068665;28;20043;-78
2022/12/28 08:51:44;;;;;;;11.98;4.78;;;;;;;8.55;48.60;102678.19;5068619;28;20024;-79
2022/12/28 08:54:10;;;;;;;6.55;3.75;;;;;;;8.59;48.45;102678.16;5052117;28;20037;-79
2022/12/28 08:56:37;;;;;;;9.43;3.67;;;;;;;8.67;48.20;102675.53;5046454;28;20052;-81
2022/12/28 08:59:02;;;;;;;4.60;2.50;;;;;;;8.76;49.71;102675.44;5067472;28;20028;-79
2022/12/28 09:01:38;;;;;;;5.90;2.75;;;;;;;8.68;47.86;102654.00;5050436;28;20450;-80
2022/12/28 09:04:03;;;;;;;2.25;1.83;;;;;;;8.54;46.52;102620.56;5069182;28;20098;-78
2022/12/28 09:06:33;;;;;;;3.03;2.03;;;;;;;8.82;43.95;102659.91;5070622;28;20478;-79
2022/12/28 09:08:59;;;;;;;10.18;3.25;;;;;;;8.85;43.73;102672.78;5038467;28;20525;-81
2022/12/28 09:11:24;;;;;;;2.00;0.98;;;;;;;8.78;43.78;102668.53;5055367;28;20059;-79
2022/12/28 09:13:50;;;;;;;2.58;1.95;;;;;;;8.82;44.31;102669.38;5072431;28;20025;-79
2022/12/28 09:16:18;;;;;;;4.50;2.33;;;;;;;8.94;44.49;102663.22;5072099;28;20025;-79
2022/12/28 09:18:44;;;;;;;3.58;2.22;;;;;;;8.93;44.63;102653.78;5055773;28;20559;-79
2022/12/28 09:21:14;;;;;;;4.05;2.10;;;;;;;9.01;45.88;102670.91;5055231;28;20029;-79
2022/12/28 09:23:40;;;;;;;5.75;2.13;;;;;;;9.05;44.79;102658.84;5039300;28;20085;-79
2022/12/28 09:26:17;;;;;;;2.30;1.45;;;;;;;8.83;45.74;102604.81;5055457;28;20044;-79
2022/12/28 09:28:51;;;;;;;6.95;3.55;;;;;;;9.10;44.91;102634.66;5071846;28;20103;-79
2022/12/28 09:31:17;;;;;;;3.45;2.20;;;;;;;8.96;45.77;102599.56;5055573;28;20115;-79
2022/12/28 09:34:01;;;;;;;4.22;2.17;;;;;;;9.29;45.26;102653.41;5072881;28;20099;-78
2022/12/28 09:36:31;;;;;;;4.15;2.33;;;;;;;9.34;45.76;102653.31;5057709;28;20032;-79
2022/12/28 09:38:56;;;;;;;4.68;2.13;;;;;;;9.33;46.08;102651.63;5071935;28;20028;-78
2022/12/28 09:41:41;;;;;;;3.03;2.30;;;;;;;9.36;46.69;102651.59;5055241;28;20029;-79
2022/12/28 09:44:15;;;;;;;4.57;2.17;;;;;;;9.32;46.53;102655.94;5071541;28;20021;-78
2022/12/28 09:47:07;;;;;;;3.75;1.73;;;;;;;9.41;46.75;102642.06;5071449;28;20512;-79
2022/12/28 09:50:07;;;;;;;4.53;2.58;;;;;;;9.40;46.77;102642.94;5064985;28;20402;-79
2022/12/28 09:52:56;;;;;;;5.47;2.72;;;;;;;9.32;44.28;102632.69;5071705;28;20067;-79
2022/12/28 09:55:21;;;;;;;6.10;3.13;;;;;;;9.36;45.19;102628.34;5039586;28;20123;-79
2022/12/28 09:57:52;;;;;;;3.85;2.33;;;;;;;9.40;44.82;102623.13;5038094;28;20033;-79
2022/12/28 10:00:20;;;;;;;2.28;2.00;;;;;;;9.43;45.34;102627.38;5055214;28;20426;-79
2022/12/28 10:02:48;;;;;;;3.70;1.70;;;;;;;9.35;44.78;102606.84;5054975;28;20082;-78
2022/12/28 10:05:14;;;;;;;3.85;2.15;;;;;;;9.14;44.95;102568.34;5070899;28;20457;-81
2022/12/28 10:07:39;;;;;;;3.08;1.65;;;;;;;9.32;44.70;102612.03;5072844;28;20506;-79
2022/12/28 10:10:05;;;;;;;4.13;2.00;;;;;;;9.34;43.63;102601.66;5072725;28;20044;-79
2022/12/28 10:12:30;;;;;;;2.83;1.80;;;;;;;9.20;44.81;102609.59;5054812;28;20058;-79
2022/12/28 10:14:56;;;;;;;7.00;2.95;;;;;;;9.08;45.72;102595.09;5054539;28;20032;-78
2022/12/28 10:17:26;;;;;;;5.25;2.55;;;;;;;9.07;46.08;102603.72;5053866;28;20039;-78
2022/12/28 10:19:52;;;;;;;2.60;1.75;;;;;;;8.96;45.74;102594.38;5053387;28;20208;-79
2022/12/28 10:22:18;;;;;;;5.25;2.28;;;;;;;8.91;46.46;102577.22;5054432;28;20340;-78
2022/12/28 10:24:44;;;;;;;4.00;2.00;;;;;;;8.93;46.65;102604.72;5070882;28;20481;-80
2022/12/28 10:27:22;;;;;;;5.03;2.72;;;;;;;8.79;46.83;102582.50;5037744;28;20060;-79
2022/12/28 10:29:49;;;;;;;4.43;2.70;;;;;;;8.90;47.81;102601.31;5054689;28;20024;-79
2022/12/28 10:32:15;;;;;;;10.75;2.80;;;;;;;8.98;48.24;102597.81;5070400;28;20119;-79
2022/12/28 10:34:57;;;;;;;6.95;2.63;;;;;;;9.01;48.51;102600.34;5054092;28;20032;-79
2022/12/28 10:37:24;;;;;;;3.28;1.92;;;;;;;9.02;47.63;102602.91;5054226;28;20063;-80
2022/12/28 10:39:54;;;;;;;4.53;1.58;;;;;;;9.14;47.02;102596.75;5054068;28;20033;-80
2022/12/28 10:42:39;;;;;;;6.72;1.98;;;;;;;8.90;46.95;102560.00;5037361;28;20043;-79
2022/12/28 10:45:35;;;;;;;11.65;2.65;;;;;;;9.05;47.10;102594.28;5055051;28;20539;-79
2022/12/28 10:48:00;;;;;;;2.40;1.58;;;;;;;9.08;48.29;102586.50;5061549;28;20123;-79
2022/12/28 10:50:52;;;;;;;1.65;1.40;;;;;;;9.18;47.38;102598.44;5070174;28;20486;-79
2022/12/28 10:53:32;;;;;;;3.47;2.47;;;;;;;9.15;46.41;102591.59;5070418;28;20046;-79
2022/12/28 10:56:12;;;;;;;4.05;2.20;;;;;;;9.16;46.66;102600.19;5054276;28;20056;-79
2022/12/28 10:58:39;;;;;;;3.45;2.15;;;;;;;9.25;45.91;102604.38;5071473;28;20104;-79
2022/12/28 11:01:13;;;;;;;4.88;2.70;;;;;;;9.14;46.89;102596.75;5053764;28;20024;-79
2022/12/28 11:03:43;;;;;;;4.47;2.15;;;;;;;9.24;46.62;102595.75;5070100;28;20053;-79
2022/12/28 11:06:14;;;;;;;4.13;2.45;;;;;;;9.33;46.26;102605.13;5053818;28;20486;-80
2022/12/28 11:08:41;;;;;;;5.53;2.53;;;;;;;9.37;45.58;102597.34;5037017;28;20404;-79
2022/12/28 11:11:10;;;;;;;3.50;1.88;;;;;;;9.19;45.53;102563.97;5036766;28;20040;-79
2022/12/28 11:13:35;;;;;;;1.77;1.15;;;;;;;9.36;45.88;102571.53;5069785;28;20037;-79
2022/12/28 11:16:01;;;;;;;6.13;1.80;;;;;;;9.49;44.93;102589.41;5069750;28;20039;-79
2022/12/28 11:18:26;;;;;;;3.28;1.88;;;;;;;9.59;45.18;102582.41;5053142;28;20056;-80
2022/12/28 11:20:52;;;;;;;4.63;1.77;;;;;;;9.70;44.56;102585.69;5070029;28;20051;-79
2022/12/28 11:23:25;;;;;;;4.75;1.40;;;;;;;9.58;44.20;102579.84;5053644;28;20429;-80
2022/12/28 11:25:50;;;;;;;3.67;2.45;;;;;;;9.44;44.93;102567.97;5053160;28;20025;-78
2022/12/28 11:28:18;;;;;;;5.68;2.90;;;;;;;9.60;45.21;102581.53;5052728;28;20387;-79
2022/12/28 11:30:44;;;;;;;4.90;2.30;;;;;;;9.66;45.37;102588.34;5052927;28;20021;-78
2022/12/28 11:33:31;;;;;;;4.88;1.58;;;;;;;9.63;44.89;102568.53;5070042;28;20042;-78
2022/12/28 11:35:56;;;;;;;3.80;2.40;;;;;;;9.59;44.75;102555.72;5071183;28;20474;-79
2022/12/28 11:38:39;;;;;;;3.05;1.50;;;;;;;9.73;46.00;102564.09;5036329;28;20028;-79
2022/12/28 11:41:05;;;;;;;4.20;2.55;;;;;;;9.70;44.88;102548.66;5052972;28;20502;-79
2022/12/28 11:43:38;;;;;;;5.28;2.53;;;;;;;9.84;45.02;102566.56;5052685;28;20071;-78
2022/12/28 11:46:05;;;;;;;3.80;2.50;;;;;;;9.79;45.61;102561.44;5070485;28;20028;-80
2022/12/28 11:48:40;;;;;;;4.90;2.63;;;;;;;9.84;45.19;102563.97;5052929;28;20046;-78
2022/12/28 11:51:16;;;;;;;5.40;2.70;;;;;;;9.83;44.90;102550.16;5070710;28;20029;-78
2022/12/28 11:53:45;;;;;;;8.25;2.47;;;;;;;9.87;45.09;102559.59;5036690;28;20158;-78
2022/12/28 11:56:15;;;;;;;4.85;2.40;;;;;;;9.89;44.88;102539.75;5070710;28;20049;-78
2022/12/28 11:58:40;;;;;;;1.65;1.27;;;;;;;9.87;46.18;102544.09;5068442;28;20031;-79
2022/12/28 12:01:29;;;;;;;12.00;3.30;;;;;;;9.89;46.12;102542.31;5068431;28;21345;-80
2022/12/28 12:03:57;;;;;;;4.93;2.63;;;;;;;9.70;46.28;102496.97;5063097;28;20054;-78